Krisjanis Valdemars — V7LI9 — position and weather

sailwx.info

Track history (hours):
 
Tides and Currents Weather Stations Pressure Air Temp Water Temp Dewpoint Dewpoint Depression Visibility Wind Speed Wind Dir Waves Ship Positions

Krisjanis Valdemars

Last reported at 2016-Aug-26 23:22 UTC. Time now 2016-Aug-27 01:14 UTC.
Position N 35°57' E 014°50'.

Length 183 m; draft 10.5 m.

Type: Tanker. MMSI: 538002757.

Date/timePositionNaut miles runAvg speedWind from/ knotsBaromVisibWave heightAir tempDewpointWater temp
2016-Aug-26 23:22N 35°57' E 014°50'0 0.0
2016-Aug-26 22:31N 35°57' E 014°50'0 0.1
2016-Aug-26 19:31N 35°57' E 014°50'0 0.0
2016-Aug-26 18:31N 35°57' E 014°50'0 0.0
2016-Aug-26 17:31N 35°57' E 014°50'0 0.1
2016-Aug-26 16:31N 35°57' E 014°50'0 0.0
2016-Aug-26 15:31N 35°57' E 014°50'0 0.1
2016-Aug-26 14:31N 35°57' E 014°50'0 0.0
2016-Aug-26 13:31N 35°57' E 014°50'0 0.0
2016-Aug-26 12:31N 35°57' E 014°50'0 0.1
2016-Aug-26 11:28N 35°57' E 014°49'0 0.0
2016-Aug-26 06:31N 35°57' E 014°49'0 0.0
2016-Aug-26 04:28N 35°57' E 014°50'0 0.0
2016-Aug-26 03:31N 35°57' E 014°50'0 0.0
2016-Aug-26 02:25N 35°57' E 014°50'0 0.0
2016-Aug-26 01:31N 35°57' E 014°50'0 0.1
2016-Aug-26 00:22N 35°57' E 014°50'0 0.0
2016-Aug-25 23:19N 35°57' E 014°50'0 0.0
2016-Aug-25 22:19N 35°57' E 014°50'0 0.2
2016-Aug-25 21:28N 35°57' E 014°50'0 0.0
2016-Aug-25 20:31N 35°57' E 014°50'0 0.0
2016-Aug-25 19:31N 35°57' E 014°50'0 0.1
2016-Aug-25 18:31N 35°57' E 014°50'0 0.0
2016-Aug-25 10:31N 35°57' E 014°49'0 0.0
2016-Aug-25 09:19N 35°57' E 014°49'0 0.0
2016-Aug-25 06:28N 35°57' E 014°50'0 0.0
2016-Aug-25 02:13N 35°57' E 014°50'0 0.0
2016-Aug-24 19:04N 35°57' E 014°49'0 0.0
2016-Aug-24 15:07N 35°57' E 014°49'0 0.0
2016-Aug-24 06:13N 35°57' E 014°50'0 0.0
2016-Aug-23 19:07N 35°57' E 014°49'0 0.3
2016-Aug-23 18:13N 35°57' E 014°49'0 0.1
2016-Aug-23 17:31N 35°57' E 014°49'0 0.0
2016-Aug-23 16:31N 35°57' E 014°49'0 0.1
2016-Aug-23 15:19N 35°57' E 014°49'0 0.0
2016-Aug-23 02:31N 35°57' E 014°49'0 0.0
2016-Aug-23 01:25N 35°57' E 014°49'3 2.9
2016-Aug-23 00:32N 35°56' E 014°52'9 8.8
2016-Aug-22 23:33N 35°54' E 015°03'1312.5
2016-Aug-22 22:30N 35°52' E 015°19'1812.7
2016-Aug-22 21:04N 35°52' E 015°41'612.6
2016-Aug-22 20:33N 35°52' E 015°49'5412.6
2016-Aug-22 16:17N 35°53' E 016°56'912.7
2016-Aug-22 15:33N 35°54' E 017°07'1312.7
2016-Aug-22 14:33N 35°54' E 017°23'2813.1
2016-Aug-22 12:24N 35°54' E 017°58'1113.2
2016-Aug-22 11:33N 35°55' E 018°11'29311.7
2016-Aug-21 10:33N 37°19' E 024°01'1613.5
2016-Aug-21 09:22N 37°34' E 024°09'1113.4
2016-Aug-21 08:33N 37°44' E 024°15'16313.3
2016-Aug-20 20:16N 40°02' E 026°07'139 7.3
2016-Aug-20 01:15N 40°56' E 028°55'279 6.4
2016-Aug-18 05:31N 43°18' E 034°20'2613.1
2016-Aug-18 03:32N 43°30' E 034°51'3113.5
2016-Aug-18 01:13N 43°44' E 035°30'913.5
2016-Aug-18 00:33N 43°48' E 035°41'  
Track history (hours):
 
Tides and Currents Weather Stations Pressure Air Temp Water Temp Dewpoint Dewpoint Depression Visibility Wind Speed Wind Dir Waves Ship Positions

Krisjanis Valdemars

Last reported at 2016-Aug-26 23:22 UTC. Time now 2016-Aug-27 01:14 UTC.
Position N 35°57' E 014°50'.

Length 183 m; draft 10.5 m.

Type: Tanker. MMSI: 538002757.

Date/timePositionNaut miles runAvg speedWind from/ knotsBaromVisibWave heightAir tempDewpointWater temp
2016-Aug-26 23:22N 35°57' E 014°50'0 0.0
2016-Aug-26 22:31N 35°57' E 014°50'0 0.1
2016-Aug-26 19:31N 35°57' E 014°50'0 0.0
2016-Aug-26 18:31N 35°57' E 014°50'0 0.0
2016-Aug-26 17:31N 35°57' E 014°50'0 0.1
2016-Aug-26 16:31N 35°57' E 014°50'0 0.0
2016-Aug-26 15:31N 35°57' E 014°50'0 0.1
2016-Aug-26 14:31N 35°57' E 014°50'0 0.0
2016-Aug-26 13:31N 35°57' E 014°50'0 0.0
2016-Aug-26 12:31N 35°57' E 014°50'0 0.1
2016-Aug-26 11:28N 35°57' E 014°49'0 0.0
2016-Aug-26 06:31N 35°57' E 014°49'0 0.0
2016-Aug-26 04:28N 35°57' E 014°50'0 0.0
2016-Aug-26 03:31N 35°57' E 014°50'0 0.0
2016-Aug-26 02:25N 35°57' E 014°50'0 0.0
2016-Aug-26 01:31N 35°57' E 014°50'0 0.1
2016-Aug-26 00:22N 35°57' E 014°50'0 0.0
2016-Aug-25 23:19N 35°57' E 014°50'0 0.0
2016-Aug-25 22:19N 35°57' E 014°50'0 0.2
2016-Aug-25 21:28N 35°57' E 014°50'0 0.0
2016-Aug-25 20:31N 35°57' E 014°50'0 0.0
2016-Aug-25 19:31N 35°57' E 014°50'0 0.1
2016-Aug-25 18:31N 35°57' E 014°50'0 0.0
2016-Aug-25 10:31N 35°57' E 014°49'0 0.0
2016-Aug-25 09:19N 35°57' E 014°49'0 0.0
2016-Aug-25 06:28N 35°57' E 014°50'0 0.0
2016-Aug-25 02:13N 35°57' E 014°50'0 0.0
2016-Aug-24 19:04N 35°57' E 014°49'0 0.0
2016-Aug-24 15:07N 35°57' E 014°49'0 0.0
2016-Aug-24 06:13N 35°57' E 014°50'0 0.0
2016-Aug-23 19:07N 35°57' E 014°49'0 0.3
2016-Aug-23 18:13N 35°57' E 014°49'0 0.1
2016-Aug-23 17:31N 35°57' E 014°49'0 0.0
2016-Aug-23 16:31N 35°57' E 014°49'0 0.1
2016-Aug-23 15:19N 35°57' E 014°49'0 0.0
2016-Aug-23 02:31N 35°57' E 014°49'0 0.0
2016-Aug-23 01:25N 35°57' E 014°49'3 2.9
2016-Aug-23 00:32N 35°56' E 014°52'9 8.8
2016-Aug-22 23:33N 35°54' E 015°03'1312.5
2016-Aug-22 22:30N 35°52' E 015°19'1812.7
2016-Aug-22 21:04N 35°52' E 015°41'612.6
2016-Aug-22 20:33N 35°52' E 015°49'5412.6
2016-Aug-22 16:17N 35°53' E 016°56'912.7
2016-Aug-22 15:33N 35°54' E 017°07'1312.7
2016-Aug-22 14:33N 35°54' E 017°23'2813.1
2016-Aug-22 12:24N 35°54' E 017°58'1113.2
2016-Aug-22 11:33N 35°55' E 018°11'29311.7
2016-Aug-21 10:33N 37°19' E 024°01'1613.5
2016-Aug-21 09:22N 37°34' E 024°09'1113.4
2016-Aug-21 08:33N 37°44' E 024°15'16313.3
2016-Aug-20 20:16N 40°02' E 026°07'139 7.3
2016-Aug-20 01:15N 40°56' E 028°55'279 6.4
2016-Aug-18 05:31N 43°18' E 034°20'2613.1
2016-Aug-18 03:32N 43°30' E 034°51'3113.5
2016-Aug-18 01:13N 43°44' E 035°30'913.5
2016-Aug-18 00:33N 43°48' E 035°41'  

Dump ship's entire track history